Thursday, February 22, 2018, 5:11 PM GMT
Back to Local

CYTR, Trenton, Ont.

Location: , , Canada Lat: 44.117
Local Time: 5:11 PM GMT (17:11 GMT) Lon: -77.533
Time Zone: GMT Elev: 278 ft

Show me the last for .
Show Decoded

2018-02-22 16:00 METAR CYTR 221600Z 05007KT 15SM BKN140 OVC160 M01/M07 A3070 RMK AC6AS2 SLP402 =
2018-02-22 15:00 METAR CYTR 221500Z 07007KT 15SM OVC150 M02/M07 A3069 RMK AC8 SLP399 =
2018-02-22 14:00 METAR CYTR 221400Z 05007KT 15SM OVC180 M02/M07 A3069 RMK AC8 SLP397 =
2018-02-22 13:00 METAR CYTR 221300Z 05008KT 15SM OVC180 M02/M07 A3069 RMK AC8 SLP398 =
2018-02-22 12:00 METAR CYTR 221200Z 05007KT 15SM OVC200 M02/M07 A3069 RMK CI8 SLP396 =
2018-02-22 06:00 METAR CYTR 220600Z 33006KT 15SM FEW180 M01/M03 A3065 RMK AC1 SLP383 =
2018-02-22 05:00 METAR CYTR 220500Z 33008KT 15SM SKC M01/M03 A3063 RMK SLP377 =
2018-02-22 04:00 METAR CYTR 220400Z 34008KT 15SM SCT180 M01/M03 A3061 RMK AS3 SLP369 =

Support USWX by starting your Amazon purchase here.